Time;durP1;ratioP1;P1;durP2;ratioP2;P2;SDS_P1;SDS_P2;PMS_P1;PMS_P2;Temp;Humidity;BMP_temperature;BMP_pressure;BME280_temperature;BME280_humidity;BME280_pressure;Samples;Min_cycle;Max_cycle;Signal;HPM_P1;HPM_P2
2022/12/01 00:01:25;;;;;;;56.87;30.03;;;3.70;99.90;;;;;;5039401;28;20276;-91
2022/12/01 00:03:51;;;;;;;61.03;30.67;;;3.60;99.90;;;;;;5039456;28;20257;-87
2022/12/01 00:06:19;;;;;;;64.17;31.83;;;3.60;99.90;;;;;;5039254;28;20177;-89
2022/12/01 00:11:32;;;;;;;66.50;32.27;;;3.50;99.90;;;;;;5058311;28;20615;-87
2022/12/01 00:13:58;;;;;;;67.93;30.77;;;3.50;99.90;;;;;;5040478;28;20596;-85
2022/12/01 00:16:23;;;;;;;69.70;33.30;;;3.50;99.90;;;;;;5057275;28;20181;-96
2022/12/01 00:18:52;;;;;;;72.27;32.87;;;3.40;99.90;;;;;;5057546;28;20181;-94
2022/12/01 00:21:20;;;;;;;74.73;34.70;;;3.40;99.90;;;;;;5039372;28;20209;-92
2022/12/01 00:23:48;;;;;;;71.33;32.30;;;3.40;99.90;;;;;;5039471;28;20672;-93
2022/12/01 00:26:16;;;;;;;79.30;34.77;;;3.40;99.90;;;;;;5039651;28;20186;-94
2022/12/01 00:28:58;;;;;;;71.37;33.93;;;3.40;99.90;;;;;;5037662;28;20189;-96
2022/12/01 00:31:25;;;;;;;81.53;34.60;;;3.40;99.90;;;;;;5037165;28;20174;-96
2022/12/01 00:33:51;;;;;;;77.97;35.07;;;3.30;99.90;;;;;;5037445;28;20202;-95
2022/12/01 00:36:16;;;;;;;76.47;35.57;;;3.30;99.90;;;;;;5037375;28;20183;-96
2022/12/01 00:38:42;;;;;;;77.80;35.00;;;3.30;99.90;;;;;;5019489;28;20189;-92
2022/12/01 00:41:08;;;;;;;81.30;34.93;;;3.30;99.90;;;;;;5037106;28;20210;-92
2022/12/01 00:43:34;;;;;;;86.93;37.03;;;3.30;99.90;;;;;;5019171;28;20186;-92
2022/12/01 00:45:59;;;;;;;77.33;33.63;;;3.30;99.90;;;;;;5037044;28;20517;-90
2022/12/01 00:48:26;;;;;;;76.90;34.27;;;3.30;99.90;;;;;;5452222;23;20331;-95
2022/12/01 00:50:53;;;;;;;81.80;35.83;;;3.30;99.90;;;;;;5050888;28;20190;-95
2022/12/01 00:53:19;;;;;;;75.07;33.47;;;3.30;99.90;;;;;;5035431;28;20514;-93
2022/12/01 00:55:45;;;;;;;73.07;33.00;;;3.20;99.90;;;;;;5035188;28;20194;-95
2022/12/01 00:58:10;;;;;;;70.37;32.27;;;3.20;99.90;;;;;;5036229;28;20179;-95
2022/12/01 01:01:00;;;;;;;71.67;31.87;;;3.20;99.90;;;;;;5054068;28;20213;-95
2022/12/01 01:03:27;;;;;;;69.07;32.33;;;3.10;99.90;;;;;;5055324;28;20181;-82
2022/12/01 01:05:53;;;;;;;75.17;33.03;;;3.10;99.90;;;;;;5054752;28;20174;-83
2022/12/01 01:08:19;;;;;;;76.13;34.17;;;3.10;99.90;;;;;;5055694;28;20224;-86
2022/12/01 01:10:47;;;;;;;75.20;33.83;;;2.90;99.90;;;;;;5055955;28;20202;-89
2022/12/01 01:13:13;;;;;;;74.33;34.10;;;3.00;99.90;;;;;;5055327;28;20177;-85
2022/12/01 01:15:39;;;;;;;80.00;33.40;;;2.90;99.90;;;;;;5056027;28;20182;-84
2022/12/01 01:18:05;;;;;;;91.87;34.27;;;2.90;99.90;;;;;;5070493;28;20181;-81
2022/12/01 01:20:32;;;;;;;80.00;34.40;;;2.90;99.90;;;;;;5054406;28;20232;-85
2022/12/01 01:22:58;;;;;;;82.53;35.67;;;2.90;99.90;;;;;;5055476;28;20158;-83
2022/12/01 01:25:24;;;;;;;75.73;32.93;;;2.80;99.90;;;;;;5055817;28;20695;-84
2022/12/01 01:27:50;;;;;;;77.17;33.00;;;2.90;99.90;;;;;;5054081;28;20212;-80
2022/12/01 01:30:16;;;;;;;73.57;32.87;;;2.80;99.90;;;;;;5055401;28;20210;-84
2022/12/01 01:32:42;;;;;;;71.83;32.03;;;2.80;99.90;;;;;;5054927;28;20166;-82
2022/12/01 01:35:08;;;;;;;80.07;31.13;;;2.80;99.90;;;;;;5054848;28;20192;-89
2022/12/01 01:37:34;;;;;;;61.37;28.47;;;2.80;99.90;;;;;;5055127;28;20198;-81
2022/12/01 01:39:59;;;;;;;67.23;29.27;;;2.70;99.90;;;;;;5055059;28;20210;-80
2022/12/01 01:42:25;;;;;;;73.47;30.00;;;2.70;99.90;;;;;;5054940;28;20277;-81
2022/12/01 01:44:56;;;;;;;70.93;30.73;;;2.70;99.90;;;;;;5054760;28;20174;-80
2022/12/01 01:47:35;;;;;;;73.90;31.70;;;2.70;99.90;;;;;;5054529;28;20174;-83
2022/12/01 01:50:08;;;;;;;70.83;30.33;;;2.70;99.90;;;;;;5054784;28;20259;-81
2022/12/01 01:52:49;;;;;;;79.40;32.47;;;2.70;99.90;;;;;;5054944;28;20631;-80
2022/12/01 01:55:15;;;;;;;74.60;30.00;;;2.70;99.90;;;;;;5054218;28;20265;-82
2022/12/01 01:57:43;;;;;;;73.80;31.70;;;2.70;99.90;;;;;;5054693;28;20166;-80
2022/12/01 02:00:11;;;;;;;74.73;32.27;;;2.60;99.90;;;;;;5054353;28;20279;-81
2022/12/01 02:02:43;;;;;;;84.57;32.63;;;2.60;99.90;;;;;;5054240;28;20166;-80
2022/12/01 02:05:13;;;;;;;89.50;35.97;;;2.60;99.90;;;;;;5054579;28;20198;-83
2022/12/01 02:07:40;;;;;;;88.33;33.50;;;2.60;99.90;;;;;;5055629;28;20169;-88
2022/12/01 02:10:11;;;;;;;86.33;33.70;;;2.50;99.90;;;;;;5054739;28;20633;-91
2022/12/01 02:12:37;;;;;;;78.97;32.23;;;2.50;99.90;;;;;;5054624;28;20251;-87
2022/12/01 02:15:05;;;;;;;90.07;33.47;;;2.50;99.90;;;;;;5054975;28;20509;-93
2022/12/01 02:17:37;;;;;;;75.40;30.90;;;2.50;99.90;;;;;;5055147;28;20223;-95
2022/12/01 02:20:35;;;;;;;89.73;33.77;;;2.60;99.90;;;;;;5055362;28;20198;-84
2022/12/01 02:23:19;;;;;;;80.83;32.80;;;2.60;99.90;;;;;;5054026;28;20188;-95
2022/12/01 02:26:13;;;;;;;90.07;32.47;;;2.50;99.90;;;;;;5055298;28;20631;-95
2022/12/01 02:29:06;;;;;;;82.73;31.30;;;2.60;99.90;;;;;;5055083;28;20562;-88
2022/12/01 02:32:01;;;;;;;77.93;31.90;;;2.50;99.90;;;;;;5055156;28;20631;-89
2022/12/01 02:34:27;;;;;;;90.53;34.33;;;2.50;99.90;;;;;;5055253;28;20158;-94
2022/12/01 02:37:07;;;;;;;89.20;34.53;;;2.60;99.90;;;;;;5055127;28;20682;-94
2022/12/01 02:39:37;;;;;;;99.03;33.57;;;2.60;99.90;;;;;;5053958;28;20523;-85
2022/12/01 02:42:47;;;;;;;86.17;33.50;;;2.50;99.90;;;;;;5070672;28;20185;-91
2022/12/01 02:45:04;;;;;;;85.20;34.30;;;2.50;99.90;;;;;;5055210;28;20178;-96
2022/12/01 02:47:32;;;;;;;86.50;31.97;;;2.50;99.90;;;;;;5053726;28;20177;-91
2022/12/01 02:49:59;;;;;;;88.97;32.63;;;2.50;99.90;;;;;;5055340;28;20687;-89
2022/12/01 02:52:26;;;;;;;95.80;33.63;;;2.50;99.90;;;;;;5070661;28;20162;-92
2022/12/01 02:54:52;;;;;;;88.23;32.47;;;2.50;99.90;;;;;;5055120;28;20227;-92
2022/12/01 02:57:22;;;;;;;84.20;31.17;;;2.50;99.90;;;;;;5071176;28;20178;-82
2022/12/01 02:59:53;;;;;;;84.13;32.70;;;2.40;99.90;;;;;;5055631;28;20626;-85
2022/12/01 03:02:50;;;;;;;80.83;32.23;;;2.50;99.90;;;;;;5055010;28;20178;-80
2022/12/01 03:05:38;;;;;;;81.67;32.77;;;2.40;99.90;;;;;;5055342;28;20154;-94
2022/12/01 03:08:13;;;;;;;84.80;31.13;;;2.50;99.90;;;;;;5057519;28;20165;-90
2022/12/01 03:10:51;;;;;;;82.03;31.33;;;2.40;99.90;;;;;;5057806;28;20180;-86
2022/12/01 03:13:19;;;;;;;89.33;31.43;;;2.40;99.90;;;;;;5059165;28;20182;-94
2022/12/01 03:16:04;;;;;;;87.40;30.80;;;2.40;99.90;;;;;;5059353;28;20173;-96
2022/12/01 03:18:46;;;;;;;74.93;28.63;;;2.40;99.90;;;;;;5058573;28;20173;-95
2022/12/01 03:21:47;;;;;;;73.33;28.97;;;2.40;99.90;;;;;;5059144;28;20380;-93
2022/12/01 03:24:19;;;;;;;67.67;26.93;;;2.30;99.90;;;;;;5059097;28;20165;-84
2022/12/01 03:26:55;;;;;;;73.50;28.47;;;2.30;99.90;;;;;;5074592;28;20170;-95
2022/12/01 03:29:32;;;;;;;69.30;28.33;;;2.30;99.90;;;;;;5058919;28;20158;-95
2022/12/01 03:32:04;;;;;;;69.93;27.83;;;2.30;99.90;;;;;;5056914;28;20174;-83
2022/12/01 03:34:40;;;;;;;68.00;26.93;;;2.30;99.90;;;;;;5073626;28;20182;-95
2022/12/01 03:37:17;;;;;;;67.03;26.23;;;2.30;99.90;;;;;;5074283;28;20176;-94
2022/12/01 03:39:45;;;;;;;66.27;26.33;;;2.30;99.90;;;;;;5056912;28;20205;-89
2022/12/01 03:42:41;;;;;;;62.97;25.53;;;2.30;99.90;;;;;;5057608;28;20166;-88
2022/12/01 03:45:14;;;;;;;62.93;25.90;;;2.30;99.90;;;;;;5053612;28;20186;-85
2022/12/01 03:47:40;;;;;;;69.30;27.67;;;2.30;99.90;;;;;;5057388;28;20163;-84
2022/12/01 03:50:12;;;;;;;70.70;27.43;;;2.20;99.90;;;;;;5057926;28;20188;-88
2022/12/01 03:53:09;;;;;;;69.20;27.80;;;2.30;99.90;;;;;;5056794;28;20550;-88
2022/12/01 03:55:41;;;;;;;70.80;26.90;;;2.30;99.90;;;;;;5057915;28;20158;-84
2022/12/01 03:58:33;;;;;;;71.40;27.10;;;2.30;99.90;;;;;;5057861;28;20168;-86
2022/12/01 04:01:01;;;;;;;64.83;26.13;;;2.30;99.90;;;;;;5057693;28;20209;-83
2022/12/01 04:03:27;;;;;;;68.37;26.23;;;2.30;99.90;;;;;;5057440;28;20218;-93
2022/12/01 04:05:53;;;;;;;66.00;26.50;;;2.30;99.90;;;;;;5056570;28;20177;-84
2022/12/01 04:08:19;;;;;;;70.10;25.57;;;2.20;99.90;;;;;;5056323;28;20182;-87
2022/12/01 04:10:51;;;;;;;71.30;26.20;;;2.20;99.90;;;;;;5058037;28;20177;-94
2022/12/01 04:13:22;;;;;;;62.03;24.23;;;2.20;99.90;;;;;;5056567;28;20182;-94
2022/12/01 04:15:52;;;;;;;67.30;25.57;;;2.10;99.90;;;;;;5057368;28;20616;-92
2022/12/01 04:18:18;;;;;;;68.63;25.50;;;2.10;99.90;;;;;;5055791;28;20174;-93
2022/12/01 04:20:45;;;;;;;65.33;26.53;;;2.10;99.90;;;;;;5057643;28;20212;-93
2022/12/01 04:23:58;;;;;;;57.73;23.43;;;2.10;99.90;;;;;;5057565;28;20664;-90
2022/12/01 04:25:59;;;;;;;66.53;24.90;;;2.10;99.90;;;;;;5057049;28;20605;-93
2022/12/01 04:28:25;;;;;;;63.43;25.07;;;2.10;99.90;;;;;;5057008;28;20174;-92
2022/12/01 04:30:51;;;;;;;79.23;27.37;;;2.00;99.90;;;;;;5058070;28;20178;-93
2022/12/01 04:33:16;;;;;;;72.27;25.60;;;2.10;99.90;;;;;;5057700;28;20510;-95
2022/12/01 04:35:42;;;;;;;72.23;26.90;;;2.00;99.90;;;;;;5058564;28;20174;-96
2022/12/01 04:38:08;;;;;;;72.90;26.37;;;2.00;99.90;;;;;;5058335;28;20368;-86
2022/12/01 04:40:34;;;;;;;64.47;26.83;;;2.10;99.90;;;;;;5057413;28;20574;-87
2022/12/01 04:42:59;;;;;;;69.40;25.47;;;2.10;99.90;;;;;;5057817;28;20170;-94
2022/12/01 04:45:25;;;;;;;67.40;23.10;;;2.00;99.90;;;;;;5058699;28;20253;-96
2022/12/01 04:47:54;;;;;;;67.13;25.63;;;2.00;99.90;;;;;;5057178;28;20225;-96
2022/12/01 04:50:19;;;;;;;63.07;24.80;;;2.00;99.90;;;;;;5058135;28;20178;-94
2022/12/01 04:52:48;;;;;;;62.47;23.83;;;1.90;99.90;;;;;;5056456;28;20185;-84
2022/12/01 04:55:14;;;;;;;70.33;23.17;;;1.90;99.90;;;;;;5057810;28;20166;-87
2022/12/01 04:57:40;;;;;;;65.23;23.50;;;1.80;99.90;;;;;;5057810;28;20184;-94
2022/12/01 05:00:11;;;;;;;64.97;23.93;;;1.80;99.90;;;;;;5057105;28;20595;-96
2022/12/01 05:02:42;;;;;;;70.40;24.17;;;1.80;99.90;;;;;;5057548;28;20167;-95
2022/12/01 05:05:09;;;;;;;58.10;22.53;;;1.80;99.90;;;;;;5056420;28;20561;-94
2022/12/01 05:07:35;;;;;;;64.17;23.17;;;1.80;99.90;;;;;;5057147;28;20197;-94
2022/12/01 05:10:01;;;;;;;70.13;24.50;;;1.80;99.90;;;;;;5057375;28;20178;-94
2022/12/01 05:12:28;;;;;;;70.30;23.63;;;1.80;99.90;;;;;;5057777;28;20178;-96
2022/12/01 05:14:54;;;;;;;70.07;23.27;;;1.80;99.90;;;;;;5057390;28;20163;-95
2022/12/01 05:17:20;;;;;;;57.97;22.87;;;1.80;99.90;;;;;;5058701;28;20191;-96
2022/12/01 05:22:38;;;;;;;59.30;24.10;;;1.80;99.90;;;;;;5057041;28;20614;-94
2022/12/01 05:25:04;;;;;;;62.53;24.33;;;1.80;99.90;;;;;;5058593;28;20190;-93
2022/12/01 05:27:29;;;;;;;67.73;24.50;;;1.80;99.90;;;;;;5056654;28;20178;-88
2022/12/01 05:29:55;;;;;;;68.97;25.17;;;1.90;99.90;;;;;;5055472;28;20676;-90
2022/12/01 05:32:21;;;;;;;67.23;25.30;;;1.80;99.90;;;;;;5056535;28;20182;-91
2022/12/01 05:34:46;;;;;;;69.23;26.13;;;1.90;99.90;;;;;;5056622;28;20173;-83
2022/12/01 05:37:12;;;;;;;65.87;25.03;;;1.90;99.90;;;;;;5056597;28;20264;-87
2022/12/01 05:39:39;;;;;;;76.47;25.93;;;1.80;99.90;;;;;;5056036;28;20209;-84
2022/12/01 05:42:06;;;;;;;73.53;26.10;;;1.90;99.90;;;;;;5056740;28;20268;-95
2022/12/01 05:44:32;;;;;;;67.03;24.43;;;1.80;99.90;;;;;;5055517;28;20180;-95
2022/12/01 05:46:58;;;;;;;67.07;24.13;;;1.90;99.90;;;;;;5055850;28;20190;-92
2022/12/01 05:49:23;;;;;;;76.97;26.23;;;1.90;99.90;;;;;;5055663;28;20229;-82
2022/12/01 05:51:56;;;;;;;73.37;26.20;;;1.90;99.90;;;;;;5056118;28;20185;-92
2022/12/01 05:54:22;;;;;;;70.57;25.83;;;1.90;99.90;;;;;;5055650;28;20177;-96
2022/12/01 05:56:48;;;;;;;75.40;25.90;;;1.80;99.90;;;;;;5055904;28;20170;-96
2022/12/01 05:59:13;;;;;;;71.00;24.90;;;1.80;99.90;;;;;;5055409;28;20182;-80
2022/12/01 06:01:39;;;;;;;67.47;23.17;;;1.80;99.90;;;;;;5055985;28;20506;-82
2022/12/01 06:04:05;;;;;;;73.30;25.47;;;1.80;99.90;;;;;;5055293;28;20171;-87
2022/12/01 06:06:30;;;;;;;77.73;25.30;;;1.80;99.90;;;;;;5054464;28;20185;-84
2022/12/01 06:08:56;;;;;;;65.43;24.83;;;1.80;99.90;;;;;;5054127;28;20181;-91
2022/12/01 06:11:23;;;;;;;68.70;24.67;;;1.80;99.90;;;;;;5054208;28;20213;-81
2022/12/01 06:13:49;;;;;;;65.27;23.50;;;1.80;99.90;;;;;;5055244;28;20173;-81
2022/12/01 06:16:14;;;;;;;60.37;23.17;;;1.80;99.90;;;;;;5054010;28;20184;-85
2022/12/01 06:18:40;;;;;;;63.90;23.57;;;1.80;99.90;;;;;;5055431;28;20184;-85
2022/12/01 06:21:06;;;;;;;61.90;23.37;;;1.70;99.90;;;;;;5055346;28;20647;-90
2022/12/01 06:23:34;;;;;;;62.90;23.00;;;1.70;99.90;;;;;;5054243;28;20174;-86
2022/12/01 06:26:00;;;;;;;61.47;22.93;;;1.70;99.90;;;;;;5053960;28;20571;-83
2022/12/01 06:28:25;;;;;;;62.47;23.87;;;1.80;99.90;;;;;;5054935;28;20170;-94
2022/12/01 06:30:51;;;;;;;73.93;25.40;;;1.70;99.90;;;;;;5054955;28;20177;-94
2022/12/01 06:33:18;;;;;;;64.00;23.47;;;1.70;99.90;;;;;;5055347;28;20213;-96
2022/12/01 06:35:44;;;;;;;65.00;23.57;;;1.70;99.90;;;;;;5054734;28;20166;-88
2022/12/01 06:38:09;;;;;;;55.50;21.80;;;1.80;99.90;;;;;;5055345;28;20174;-95
2022/12/01 06:40:35;;;;;;;60.63;22.97;;;1.80;99.90;;;;;;5052083;28;20648;-84
2022/12/01 06:43:01;;;;;;;59.80;23.83;;;1.80;99.90;;;;;;5040714;28;20249;-83
2022/12/01 06:45:28;;;;;;;60.83;24.13;;;1.80;99.90;;;;;;5034846;28;20625;-82
2022/12/01 06:47:54;;;;;;;65.37;23.90;;;1.80;99.90;;;;;;5035901;28;20218;-91
2022/12/01 06:50:20;;;;;;;66.13;26.03;;;1.80;99.90;;;;;;5053447;28;20281;-82
2022/12/01 06:52:46;;;;;;;70.67;25.47;;;1.80;99.90;;;;;;5042625;28;20186;-83
2022/12/01 06:55:13;;;;;;;70.17;24.03;;;1.80;99.90;;;;;;5033726;28;20518;-84
2022/12/01 06:57:39;;;;;;;65.97;25.13;;;1.90;99.90;;;;;;5043605;28;20174;-89
2022/12/01 07:00:05;;;;;;;76.60;24.77;;;1.80;99.90;;;;;;5035596;28;20222;-91
2022/12/01 07:02:31;;;;;;;66.57;25.40;;;1.80;99.90;;;;;;5033933;28;20179;-93
2022/12/01 07:04:57;;;;;;;80.23;26.43;;;1.80;99.90;;;;;;5036310;28;20644;-92
2022/12/01 07:07:23;;;;;;;74.43;26.47;;;1.80;99.90;;;;;;5054755;28;20166;-91
2022/12/01 07:09:48;;;;;;;72.67;25.10;;;1.80;99.90;;;;;;5055908;28;20600;-92
2022/12/01 07:12:15;;;;;;;70.53;25.63;;;1.80;99.90;;;;;;5073112;28;20226;-91
2022/12/01 07:14:41;;;;;;;70.67;24.27;;;1.80;99.90;;;;;;5056955;28;20170;-89
2022/12/01 07:17:08;;;;;;;81.70;27.17;;;1.80;99.90;;;;;;5071059;28;20173;-91
2022/12/01 07:19:34;;;;;;;74.90;26.80;;;1.80;99.90;;;;;;5054395;28;20256;-92
2022/12/01 07:22:01;;;;;;;64.97;25.13;;;1.90;99.90;;;;;;5053546;28;20616;-87
2022/12/01 07:24:27;;;;;;;89.53;26.00;;;1.90;99.90;;;;;;5054630;28;20163;-88
2022/12/01 07:26:52;;;;;;;78.90;26.27;;;1.90;99.90;;;;;;5053704;28;20178;-81
2022/12/01 07:29:18;;;;;;;79.00;26.70;;;1.90;99.90;;;;;;5053767;28;20170;-83
2022/12/01 07:31:44;;;;;;;94.20;28.77;;;1.90;99.90;;;;;;5053889;28;20197;-80
2022/12/01 07:34:12;;;;;;;83.17;28.23;;;1.90;99.90;;;;;;5053992;28;20182;-82
2022/12/01 07:36:38;;;;;;;80.27;27.23;;;2.00;99.90;;;;;;5049069;28;20579;-80
2022/12/01 07:39:06;;;;;;;79.57;27.47;;;1.90;99.90;;;;;;5033958;28;20185;-83
2022/12/01 07:41:32;;;;;;;83.53;28.77;;;1.90;99.90;;;;;;5036052;28;20731;-83
2022/12/01 07:43:59;;;;;;;79.80;27.13;;;2.00;99.90;;;;;;5052166;28;20192;-84
2022/12/01 07:46:27;;;;;;;70.47;25.40;;;2.00;99.90;;;;;;5053521;28;20621;-82
2022/12/01 07:48:54;;;;;;;72.60;25.23;;;1.90;99.90;;;;;;5053428;28;20217;-80
2022/12/01 07:51:21;;;;;;;69.00;25.27;;;1.90;99.90;;;;;;5053579;28;20495;-83
2022/12/01 07:53:49;;;;;;;66.63;24.73;;;1.90;99.90;;;;;;5070912;28;20269;-84
2022/12/01 07:56:16;;;;;;;61.93;24.20;;;2.00;99.90;;;;;;5057218;28;20193;-83
2022/12/01 07:58:42;;;;;;;76.20;29.17;;;2.00;99.90;;;;;;5057020;28;20356;-83
2022/12/01 08:01:14;;;;;;;72.87;25.43;;;2.00;99.90;;;;;;5057519;28;20247;-94
2022/12/01 08:03:42;;;;;;;64.87;24.40;;;2.00;99.90;;;;;;5057309;28;20251;-94
2022/12/01 08:06:09;;;;;;;65.87;24.10;;;2.00;99.90;;;;;;5073703;28;20182;-87
2022/12/01 08:08:37;;;;;;;76.10;27.13;;;2.00;99.90;;;;;;5056789;28;20166;-86
2022/12/01 08:11:05;;;;;;;72.40;28.40;;;2.00;99.90;;;;;;5044156;28;20269;-94
2022/12/01 08:13:31;;;;;;;68.90;24.83;;;2.10;99.90;;;;;;5041951;28;20187;-84
2022/12/01 08:15:57;;;;;;;91.13;30.70;;;2.00;99.90;;;;;;5036978;28;20181;-92
2022/12/01 08:18:23;;;;;;;121.13;44.50;;;2.00;99.90;;;;;;5042479;28;20262;-91
2022/12/01 08:20:59;;;;;;;74.40;26.43;;;2.00;99.90;;;;;;5042550;28;20213;-92
2022/12/01 08:23:41;;;;;;;67.23;24.97;;;2.00;99.90;;;;;;5040493;28;20593;-96
2022/12/01 08:26:11;;;;;;;64.63;23.73;;;2.00;99.90;;;;;;5038179;28;20291;-96
2022/12/01 08:28:38;;;;;;;64.47;23.50;;;2.00;99.90;;;;;;5036717;28;20228;-95
2022/12/01 08:31:16;;;;;;;65.07;24.03;;;2.00;99.90;;;;;;5043357;28;20215;-93
2022/12/01 08:33:43;;;;;;;62.23;22.83;;;2.00;99.90;;;;;;5057397;28;20196;-94
2022/12/01 08:36:09;;;;;;;73.37;24.37;;;2.00;99.90;;;;;;5057316;28;20218;-96
2022/12/01 08:38:35;;;;;;;73.93;25.40;;;2.00;99.90;;;;;;5057630;28;20604;-93
2022/12/01 08:41:06;;;;;;;66.30;23.93;;;2.00;99.90;;;;;;5057718;28;20301;-92
2022/12/01 08:43:38;;;;;;;65.87;24.23;;;2.10;99.90;;;;;;5058860;28;20174;-93
2022/12/01 08:46:05;;;;;;;68.10;23.33;;;2.00;99.90;;;;;;5056787;28;20206;-89
2022/12/01 08:48:31;;;;;;;72.27;24.53;;;2.10;99.90;;;;;;5058095;28;20279;-93
2022/12/01 08:51:07;;;;;;;74.33;23.00;;;2.10;99.90;;;;;;5057762;28;20182;-93
2022/12/01 08:53:42;;;;;;;67.13;24.03;;;2.00;99.90;;;;;;5058266;28;20158;-88
2022/12/01 08:56:23;;;;;;;68.00;23.60;;;2.00;99.90;;;;;;5057185;28;20600;-93
2022/12/01 08:58:49;;;;;;;61.47;23.40;;;2.00;99.90;;;;;;5056950;28;20162;-88
2022/12/01 09:01:19;;;;;;;63.23;21.33;;;2.00;99.90;;;;;;5036745;28;20213;-93
2022/12/01 09:04:03;;;;;;;65.20;23.93;;;2.10;99.90;;;;;;5036957;28;20234;-89
2022/12/01 09:06:48;;;;;;;61.67;21.60;;;2.10;99.90;;;;;;5037191;28;20159;-86
2022/12/01 09:09:17;;;;;;;65.17;23.67;;;2.10;99.90;;;;;;5036998;28;20255;-91
2022/12/01 09:11:44;;;;;;;58.63;21.30;;;2.10;99.90;;;;;;5040554;28;20260;-93
2022/12/01 09:14:17;;;;;;;46.23;19.17;;;2.10;99.90;;;;;;5055347;28;20178;-89
2022/12/01 09:16:44;;;;;;;52.27;18.77;;;2.20;99.90;;;;;;5056970;28;20162;-95
2022/12/01 09:19:11;;;;;;;44.97;17.90;;;2.10;99.90;;;;;;5055925;28;20210;-96
2022/12/01 09:21:37;;;;;;;51.73;17.57;;;2.10;99.90;;;;;;5056509;28;20299;-96
2022/12/01 09:24:05;;;;;;;44.43;18.13;;;2.10;99.90;;;;;;5056525;28;20260;-96
2022/12/01 09:26:32;;;;;;;54.70;20.30;;;2.10;99.90;;;;;;5057753;28;20261;-96
2022/12/01 09:29:05;;;;;;;61.83;22.23;;;2.20;99.90;;;;;;5058108;28;20220;-93
2022/12/01 09:31:31;;;;;;;52.57;19.80;;;2.20;99.90;;;;;;5050501;28;20171;-94
2022/12/01 09:34:01;;;;;;;54.83;20.87;;;2.20;99.90;;;;;;5037949;28;20221;-87
2022/12/01 09:36:29;;;;;;;52.87;20.37;;;2.10;99.90;;;;;;5037943;28;20159;-96
2022/12/01 09:38:54;;;;;;;58.20;19.97;;;2.20;99.90;;;;;;5037156;28;20190;-90
2022/12/01 09:41:25;;;;;;;54.70;19.23;;;2.20;99.90;;;;;;5040344;28;20206;-90
2022/12/01 09:44:19;;;;;;;53.93;20.77;;;2.20;99.90;;;;;;5057635;28;20174;-90
2022/12/01 09:46:53;;;;;;;55.93;21.27;;;2.20;99.90;;;;;;5057115;28;20186;-89
2022/12/01 09:49:37;;;;;;;54.13;21.40;;;2.20;99.90;;;;;;5057209;28;20251;-86
2022/12/01 09:52:03;;;;;;;60.20;20.13;;;2.20;99.90;;;;;;5059077;28;20174;-95
2022/12/01 09:54:29;;;;;;;56.90;20.80;;;2.20;99.90;;;;;;5058472;28;20180;-89
2022/12/01 09:56:55;;;;;;;51.70;19.97;;;2.30;99.90;;;;;;5059428;28;20204;-93
2022/12/01 09:59:26;;;;;;;53.40;19.80;;;2.20;99.90;;;;;;5059591;28;20597;-85
2022/12/01 10:01:58;;;;;;;55.87;20.97;;;2.20;99.90;;;;;;5059881;28;20198;-95
2022/12/01 10:04:39;;;;;;;51.13;19.97;;;2.20;99.90;;;;;;5074065;28;20208;-85
2022/12/01 10:07:14;;;;;;;57.40;19.93;;;2.30;99.90;;;;;;5059466;28;20170;-96
2022/12/01 10:09:44;;;;;;;49.37;19.30;;;2.30;99.90;;;;;;5056438;28;20188;-95
2022/12/01 10:12:15;;;;;;;55.07;20.87;;;2.30;99.90;;;;;;5055716;28;20184;-94
2022/12/01 10:14:44;;;;;;;55.00;20.10;;;2.30;99.90;;;;;;5045029;28;20185;-93
2022/12/01 10:17:38;;;;;;;61.37;22.33;;;2.30;99.90;;;;;;5039058;28;20609;-96
2022/12/01 10:20:10;;;;;;;60.73;20.50;;;2.30;99.90;;;;;;5052402;28;20206;-92
2022/12/01 10:23:23;;;;;;;60.33;19.83;;;2.30;99.90;;;;;;5058675;28;20174;-93
2022/12/01 10:25:56;;;;;;;63.33;22.00;;;2.30;99.90;;;;;;5014154;28;20179;-92
2022/12/01 10:29:04;;;;;;;55.47;20.73;;;2.30;99.90;;;;;;5045108;28;20212;-82
2022/12/01 10:31:53;;;;;;;67.77;21.90;;;2.40;99.90;;;;;;5055248;28;20648;-93
2022/12/01 10:34:30;;;;;;;59.10;21.40;;;2.30;99.90;;;;;;5056341;28;20284;-93
2022/12/01 10:36:57;;;;;;;68.73;21.57;;;2.40;99.90;;;;;;5055617;28;20221;-95
2022/12/01 10:39:30;;;;;;;71.40;24.90;;;2.30;99.90;;;;;;5054068;28;20173;-87
2022/12/01 10:42:18;;;;;;;61.53;23.57;;;2.30;99.90;;;;;;5034881;28;20187;-95
2022/12/01 10:44:54;;;;;;;70.10;23.43;;;2.40;99.90;;;;;;5036457;28;20190;-96
2022/12/01 10:47:24;;;;;;;73.47;24.93;;;2.40;99.90;;;;;;5040008;28;20174;-90
2022/12/01 10:49:51;;;;;;;69.87;24.30;;;2.40;99.90;;;;;;5049792;28;20229;-96
2022/12/01 10:52:37;;;;;;;73.93;24.90;;;2.40;99.90;;;;;;5061542;28;20182;-86
2022/12/01 10:55:21;;;;;;;86.57;26.93;;;2.40;99.90;;;;;;5058541;28;20170;-92
2022/12/01 10:57:53;;;;;;;77.27;26.43;;;2.40;99.90;;;;;;5060793;28;20221;-93
2022/12/01 11:00:29;;;;;;;71.80;25.37;;;2.40;99.90;;;;;;5075217;28;20294;-95
2022/12/01 11:02:55;;;;;;;78.90;25.20;;;2.50;99.90;;;;;;5060075;28;20169;-90
2022/12/01 11:05:31;;;;;;;71.10;24.43;;;2.40;99.90;;;;;;5059445;28;20154;-96
2022/12/01 11:07:59;;;;;;;72.80;24.57;;;2.30;99.90;;;;;;5055031;28;20241;-96
2022/12/01 11:10:29;;;;;;;66.20;23.43;;;2.40;99.90;;;;;;5056254;28;20231;-93
2022/12/01 11:12:58;;;;;;;78.77;25.67;;;2.30;99.90;;;;;;5061376;28;20256;-96
2022/12/01 11:15:29;;;;;;;68.83;24.23;;;2.30;99.90;;;;;;5057053;28;20188;-96
2022/12/01 11:18:01;;;;;;;80.43;25.30;;;2.30;99.90;;;;;;5062369;28;20581;-96
2022/12/01 11:20:33;;;;;;;78.10;25.33;;;2.30;99.90;;;;;;5059048;28;20205;-93
2022/12/01 11:23:19;;;;;;;72.47;24.20;;;2.40;99.90;;;;;;5056145;28;20189;-91
2022/12/01 11:26:26;;;;;;;75.00;25.70;;;2.30;99.90;;;;;;5061324;28;20532;-96
2022/12/01 11:28:56;;;;;;;70.47;25.20;;;2.40;99.90;;;;;;5061469;28;20170;-96
2022/12/01 11:31:42;;;;;;;73.73;25.43;;;2.40;99.90;;;;;;5064351;28;20178;-93
2022/12/01 11:34:20;;;;;;;70.80;24.90;;;2.40;99.90;;;;;;5049353;28;20198;-96
2022/12/01 11:36:50;;;;;;;76.73;24.57;;;2.30;99.90;;;;;;5041027;28;20166;-96
2022/12/01 11:39:31;;;;;;;74.57;24.53;;;2.40;99.90;;;;;;5053067;28;20218;-95
2022/12/01 11:42:26;;;;;;;71.07;24.37;;;2.40;99.90;;;;;;5039941;28;20524;-96
2022/12/01 11:45:14;;;;;;;73.17;24.23;;;2.30;99.90;;;;;;5041182;28;20197;-86
2022/12/01 11:48:18;;;;;;;78.40;28.53;;;2.30;99.90;;;;;;5058733;28;20194;-95
2022/12/01 11:51:13;;;;;;;79.63;26.57;;;2.30;99.90;;;;;;5058387;28;20254;-94
2022/12/01 11:53:41;;;;;;;68.33;23.60;;;2.40;99.90;;;;;;5043146;28;20689;-91
2022/12/01 11:56:27;;;;;;;67.33;23.90;;;2.40;99.90;;;;;;5041262;28;20273;-92
2022/12/01 11:59:05;;;;;;;70.43;23.47;;;2.40;99.90;;;;;;5045093;28;20193;-82
2022/12/01 12:01:44;;;;;;;73.67;25.70;;;2.40;99.90;;;;;;5060682;28;20215;-95
2022/12/01 12:04:13;;;;;;;71.80;24.07;;;2.40;99.90;;;;;;5041890;28;20182;-94
2022/12/01 12:07:16;;;;;;;70.97;23.30;;;2.40;99.90;;;;;;5058356;28;20204;-96
2022/12/01 12:10:08;;;;;;;75.40;24.20;;;2.40;99.90;;;;;;5018944;28;20186;-96
2022/12/01 12:12:45;;;;;;;74.50;23.83;;;2.30;99.90;;;;;;5039356;28;20285;-96
2022/12/01 12:15:37;;;;;;;75.60;25.53;;;2.40;99.90;;;;;;5059724;28;20181;-92
2022/12/01 12:18:24;;;;;;;75.70;24.47;;;2.40;99.90;;;;;;5030214;28;20194;-96
2022/12/01 12:20:59;;;;;;;80.33;25.07;;;2.40;99.90;;;;;;5051054;28;20225;-96
2022/12/01 12:24:00;;;;;;;76.23;25.53;;;2.40;99.90;;;;;;5039255;28;20217;-95
2022/12/01 12:26:29;;;;;;;71.57;23.97;;;2.40;99.90;;;;;;5018129;28;20217;-95
2022/12/01 12:29:13;;;;;;;74.87;25.77;;;2.40;99.90;;;;;;5048413;28;20183;-87
2022/12/01 12:31:56;;;;;;;75.30;24.93;;;2.40;99.90;;;;;;5051501;28;20185;-95
2022/12/01 12:34:53;;;;;;;69.13;23.10;;;2.40;99.90;;;;;;5058592;28;20189;-94
2022/12/01 12:37:30;;;;;;;80.63;24.30;;;2.40;99.90;;;;;;5054499;28;20183;-95
2022/12/01 12:40:21;;;;;;;74.13;23.37;;;2.40;99.90;;;;;;5036906;28;20217;-94
2022/12/01 12:43:33;;;;;;;76.73;24.70;;;2.40;99.90;;;;;;5041290;28;20499;-90
2022/12/01 12:46:15;;;;;;;76.23;24.53;;;2.40;99.90;;;;;;5043846;28;20197;-95
2022/12/01 12:51:24;;;;;;;64.97;22.13;;;2.40;99.90;;;;;;5424502;22;20486;-92
2022/12/01 12:54:31;;;;;;;76.37;23.80;;;2.50;99.90;;;;;;5024828;28;20225;-92
2022/12/01 12:57:14;;;;;;;67.33;22.67;;;2.50;99.90;;;;;;5018042;28;20190;-92
2022/12/01 13:00:16;;;;;;;72.53;23.50;;;2.50;99.90;;;;;;5028170;28;20220;-92
2022/12/01 13:02:55;;;;;;;82.83;25.50;;;2.50;99.90;;;;;;5025679;28;20170;-92
2022/12/01 13:05:45;;;;;;;84.00;25.47;;;2.40;99.90;;;;;;5022219;28;20188;-92
2022/12/01 13:08:36;;;;;;;86.20;26.23;;;2.50;99.90;;;;;;5025597;28;20263;-91
2022/12/01 13:11:12;;;;;;;80.33;24.53;;;2.40;99.90;;;;;;5032468;28;20186;-92